Kimberly Turecamo — WDC6838 — position and weather

sailwx.info

Track history (hours):
 
Tides and Currents Weather Stations Pressure Air Temp Water Temp Dewpoint Dewpoint Depression Visibility Wind Speed Wind Dir Waves Ship Positions

Kimberly Turecamo

Owner: Moran Towing Corporation, New Canaan, CT. More information available from US FCC via Universal Licensing System and Coast Guard Vessel Documentation Center.

Last reported at 2016-Sep-30 06:31 UTC. Time now 2016-Sep-30 08:18 UTC.
Position N 40°40' W 074°03'.

Length 120 m; draft 5 m.

Type: . MMSI: 367061980.

Date/timePositionNaut miles runAvg speedWind from/ knotsBaromVisibWave heightAir tempDewpointWater temp
2016-Sep-30 06:31N 40°40' W 074°03'0 0.0
2016-Sep-30 03:31N 40°40' W 074°03'0 0.0
2016-Sep-30 02:28N 40°40' W 074°03'0 0.0
2016-Sep-29 23:31N 40°40' W 074°03'0 0.0
2016-Sep-29 21:31N 40°40' W 074°03'0 0.0
2016-Sep-29 20:31N 40°40' W 074°03'0 0.0
2016-Sep-29 19:31N 40°40' W 074°03'0 0.0
2016-Sep-29 16:34N 40°40' W 074°03'0 0.0
2016-Sep-29 15:33N 40°40' W 074°03'0 0.0
2016-Sep-29 14:33N 40°40' W 074°03'0 0.0
2016-Sep-29 13:33N 40°40' W 074°03'0 0.0
2016-Sep-29 08:33N 40°40' W 074°03'0 0.0
2016-Sep-29 07:33N 40°40' W 074°03'0 0.0
2016-Sep-29 00:30N 40°40' W 074°03'0 0.0
2016-Sep-28 21:33N 40°40' W 074°03'0 0.0
2016-Sep-28 19:30N 40°40' W 074°03'11 3.8
2016-Sep-28 16:33N 40°48' W 073°53'5 4.6
2016-Sep-28 15:31N 40°50' W 073°47'19 1.6
2016-Sep-28 03:33N 40°38' W 074°08'0 0.0
2016-Sep-28 02:33N 40°38' W 074°08'0 0.0
2016-Sep-28 01:33N 40°38' W 074°08'1 0.4
2016-Sep-27 23:30N 40°39' W 074°07'1 0.2
2016-Sep-27 19:33N 40°38' W 074°08'0 0.0
2016-Sep-27 14:33N 40°38' W 074°08'0 0.0
2016-Sep-27 13:33N 40°38' W 074°08'0 0.0
2016-Sep-27 00:33N 40°38' W 074°08'0 0.0
2016-Sep-26 20:33N 40°38' W 074°08'0 0.0
2016-Sep-26 19:33N 40°38' W 074°08'14 0.8
2016-Sep-26 02:33N 40°50' W 073°58'4 0.1
2016-Sep-24 03:33N 40°46' W 074°00'6 6.0
2016-Sep-24 02:33N 40°41' W 074°02'3 2.8
2016-Sep-24 01:33N 40°39' W 074°05'0 0.0
2016-Sep-24 00:32N 40°39' W 074°05'2 0.4
2016-Sep-23 19:33N 40°38' W 074°08'0 0.0
2016-Sep-23 17:33N 40°38' W 074°08'0 0.0
2016-Sep-23 16:30N 40°38' W 074°08'1 1.0
2016-Sep-23 15:29N 40°39' W 074°07'0 0.0
2016-Sep-23 13:29N 40°39' W 074°07'2 0.4
2016-Sep-23 09:33N 40°39' W 074°09'1 0.3
2016-Sep-23 06:33N 40°38' W 074°08'0 0.2
2016-Sep-23 04:33N 40°39' W 074°08'2 2.5
2016-Sep-23 03:33N 40°38' W 074°12'7 7.0
2016-Sep-23 02:33N 40°40' W 074°03'6 5.7
2016-Sep-23 01:33N 40°45' W 073°58'7 6.7
2016-Sep-23 00:33N 40°48' W 073°50'7 0.3
2016-Sep-22 00:33N 40°44' W 073°58'8 8.2
2016-Sep-21 23:33N 40°39' W 074°06'2 2.0
2016-Sep-21 22:33N 40°40' W 074°08'10 1.6
2016-Sep-21 16:28N 40°31' W 074°15'9 1.3
2016-Sep-21 09:33N 40°38' W 074°08'0 0.0
2016-Sep-21 08:33N 40°38' W 074°08'5 0.7
2016-Sep-21 02:15N 40°35' W 074°12'5 0.5
2016-Sep-20 17:32N 40°38' W 074°08'0 0.1
2016-Sep-20 14:33N 40°39' W 074°08'3 3.5
2016-Sep-20 13:34N 40°38' W 074°04'4 0.8
2016-Sep-20 08:32N 40°39' W 074°09'1 0.9
2016-Sep-20 07:32N 40°38' W 074°08'0 0.0
2016-Sep-20 06:32N 40°38' W 074°08'  
Track history (hours):
 
Tides and Currents Weather Stations Pressure Air Temp Water Temp Dewpoint Dewpoint Depression Visibility Wind Speed Wind Dir Waves Ship Positions

Kimberly Turecamo

Owner: Moran Towing Corporation, New Canaan, CT. More information available from US FCC via Universal Licensing System and Coast Guard Vessel Documentation Center.

Last reported at 2016-Sep-30 06:31 UTC. Time now 2016-Sep-30 08:18 UTC.
Position N 40°40' W 074°03'.

Length 120 m; draft 5 m.

Type: . MMSI: 367061980.

Date/timePositionNaut miles runAvg speedWind from/ knotsBaromVisibWave heightAir tempDewpointWater temp
2016-Sep-30 06:31N 40°40' W 074°03'0 0.0
2016-Sep-30 03:31N 40°40' W 074°03'0 0.0
2016-Sep-30 02:28N 40°40' W 074°03'0 0.0
2016-Sep-29 23:31N 40°40' W 074°03'0 0.0
2016-Sep-29 21:31N 40°40' W 074°03'0 0.0
2016-Sep-29 20:31N 40°40' W 074°03'0 0.0
2016-Sep-29 19:31N 40°40' W 074°03'0 0.0
2016-Sep-29 16:34N 40°40' W 074°03'0 0.0
2016-Sep-29 15:33N 40°40' W 074°03'0 0.0
2016-Sep-29 14:33N 40°40' W 074°03'0 0.0
2016-Sep-29 13:33N 40°40' W 074°03'0 0.0
2016-Sep-29 08:33N 40°40' W 074°03'0 0.0
2016-Sep-29 07:33N 40°40' W 074°03'0 0.0
2016-Sep-29 00:30N 40°40' W 074°03'0 0.0
2016-Sep-28 21:33N 40°40' W 074°03'0 0.0
2016-Sep-28 19:30N 40°40' W 074°03'11 3.8
2016-Sep-28 16:33N 40°48' W 073°53'5 4.6
2016-Sep-28 15:31N 40°50' W 073°47'19 1.6
2016-Sep-28 03:33N 40°38' W 074°08'0 0.0
2016-Sep-28 02:33N 40°38' W 074°08'0 0.0
2016-Sep-28 01:33N 40°38' W 074°08'1 0.4
2016-Sep-27 23:30N 40°39' W 074°07'1 0.2
2016-Sep-27 19:33N 40°38' W 074°08'0 0.0
2016-Sep-27 14:33N 40°38' W 074°08'0 0.0
2016-Sep-27 13:33N 40°38' W 074°08'0 0.0
2016-Sep-27 00:33N 40°38' W 074°08'0 0.0
2016-Sep-26 20:33N 40°38' W 074°08'0 0.0
2016-Sep-26 19:33N 40°38' W 074°08'14 0.8
2016-Sep-26 02:33N 40°50' W 073°58'4 0.1
2016-Sep-24 03:33N 40°46' W 074°00'6 6.0
2016-Sep-24 02:33N 40°41' W 074°02'3 2.8
2016-Sep-24 01:33N 40°39' W 074°05'0 0.0
2016-Sep-24 00:32N 40°39' W 074°05'2 0.4
2016-Sep-23 19:33N 40°38' W 074°08'0 0.0
2016-Sep-23 17:33N 40°38' W 074°08'0 0.0
2016-Sep-23 16:30N 40°38' W 074°08'1 1.0
2016-Sep-23 15:29N 40°39' W 074°07'0 0.0
2016-Sep-23 13:29N 40°39' W 074°07'2 0.4
2016-Sep-23 09:33N 40°39' W 074°09'1 0.3
2016-Sep-23 06:33N 40°38' W 074°08'0 0.2
2016-Sep-23 04:33N 40°39' W 074°08'2 2.5
2016-Sep-23 03:33N 40°38' W 074°12'7 7.0
2016-Sep-23 02:33N 40°40' W 074°03'6 5.7
2016-Sep-23 01:33N 40°45' W 073°58'7 6.7
2016-Sep-23 00:33N 40°48' W 073°50'7 0.3
2016-Sep-22 00:33N 40°44' W 073°58'8 8.2
2016-Sep-21 23:33N 40°39' W 074°06'2 2.0
2016-Sep-21 22:33N 40°40' W 074°08'10 1.6
2016-Sep-21 16:28N 40°31' W 074°15'9 1.3
2016-Sep-21 09:33N 40°38' W 074°08'0 0.0
2016-Sep-21 08:33N 40°38' W 074°08'5 0.7
2016-Sep-21 02:15N 40°35' W 074°12'5 0.5
2016-Sep-20 17:32N 40°38' W 074°08'0 0.1
2016-Sep-20 14:33N 40°39' W 074°08'3 3.5
2016-Sep-20 13:34N 40°38' W 074°04'4 0.8
2016-Sep-20 08:32N 40°39' W 074°09'1 0.9
2016-Sep-20 07:32N 40°38' W 074°08'0 0.0
2016-Sep-20 06:32N 40°38' W 074°08'  

Dump ship's entire track history